createdAt,value
2019-05-29T00:00:22.216Z,1029.68
2019-05-29T00:01:22.192Z,1029.7
2019-05-29T00:02:22.183Z,1029.65
2019-05-29T00:03:22.174Z,1029.71
2019-05-29T00:04:22.170Z,1029.72
2019-05-29T00:05:22.155Z,1029.71
2019-05-29T00:06:22.146Z,1029.7
2019-05-29T00:07:22.137Z,1029.71
2019-05-29T00:08:22.126Z,1029.73
2019-05-29T00:09:22.116Z,1029.75
2019-05-29T00:10:22.107Z,1029.79
2019-05-29T00:12:22.090Z,1029.78
2019-05-29T00:13:22.089Z,1029.76
2019-05-29T00:14:27.056Z,1029.75
2019-05-29T00:15:22.060Z,1029.76
2019-05-29T00:16:22.080Z,1029.74
2019-05-29T00:17:22.041Z,1029.81
2019-05-29T00:18:22.033Z,1029.75
2019-05-29T00:19:22.023Z,1029.75
2019-05-29T00:20:22.013Z,1029.75
2019-05-29T00:21:22.005Z,1029.78
2019-05-29T00:22:21.994Z,1029.74
2019-05-29T00:23:21.985Z,1029.76
2019-05-29T00:24:23.126Z,1029.78
2019-05-29T00:25:21.969Z,1029.79
2019-05-29T00:26:21.956Z,1029.83
2019-05-29T00:27:21.947Z,1029.79
2019-05-29T00:28:21.937Z,1029.81
2019-05-29T00:29:21.928Z,1029.81
2019-05-29T00:30:21.919Z,1029.81
2019-05-29T00:31:21.910Z,1029.84
2019-05-29T00:32:21.901Z,1029.83
2019-05-29T00:33:21.892Z,1029.8
2019-05-29T00:34:21.881Z,1029.8
2019-05-29T00:35:21.871Z,1029.82
2019-05-29T00:36:21.864Z,1029.81
2019-05-29T00:37:21.853Z,1029.83
2019-05-29T00:38:21.842Z,1029.83
2019-05-29T00:39:21.834Z,1029.81
2019-05-29T00:40:21.824Z,1029.82
2019-05-29T00:41:21.814Z,1029.85
2019-05-29T00:42:21.805Z,1029.84
2019-05-29T00:43:21.796Z,1029.87
2019-05-29T00:44:34.865Z,1029.88
2019-05-29T00:45:21.776Z,1029.91
2019-05-29T00:46:21.766Z,1029.87
2019-05-29T00:47:21.758Z,1029.87
2019-05-29T00:48:21.750Z,1029.89
2019-05-29T00:49:21.739Z,1029.86
2019-05-29T00:50:21.729Z,1029.88
2019-05-29T00:51:21.719Z,1029.86
2019-05-29T00:52:21.710Z,1029.9
2019-05-29T00:53:21.702Z,1029.93
2019-05-29T00:54:21.692Z,1029.97
2019-05-29T00:55:21.681Z,1029.93
2019-05-29T00:56:21.674Z,1029.95
2019-05-29T00:57:21.663Z,1029.92
2019-05-29T00:58:21.652Z,1029.94
2019-05-29T00:59:21.643Z,1029.98
2019-05-29T01:00:21.634Z,1030.01
2019-05-29T01:01:21.626Z,1030.02
2019-05-29T01:02:21.614Z,1030.01
2019-05-29T01:03:21.606Z,1030.03
2019-05-29T01:04:21.599Z,1030.05
2019-05-29T01:05:21.589Z,1030.04
2019-05-29T01:06:21.577Z,1030.07
2019-05-29T01:07:21.570Z,1030.07
2019-05-29T01:08:21.559Z,1030.07
2019-05-29T01:09:21.550Z,1030.05
2019-05-29T01:10:21.540Z,1030.04
2019-05-29T01:11:21.530Z,1030.06
2019-05-29T01:12:34.252Z,1030.06
2019-05-29T01:13:21.510Z,1030.07
2019-05-29T01:14:21.545Z,1030.06
2019-05-29T01:15:21.588Z,1030.09
2019-05-29T01:16:21.726Z,1030.03
2019-05-29T01:17:34.206Z,1030.04
2019-05-29T01:18:22.324Z,1030.04
2019-05-29T01:19:22.181Z,1030.03
2019-05-29T01:20:22.005Z,1030.08
2019-05-29T01:21:22.172Z,1030.11
2019-05-29T01:22:22.399Z,1030.13
2019-05-29T01:23:22.414Z,1030.15
2019-05-29T01:24:22.665Z,1030.21
2019-05-29T01:25:22.390Z,1030.22
2019-05-29T01:26:21.391Z,1030.22
2019-05-29T01:27:21.381Z,1030.25
2019-05-29T01:28:21.370Z,1030.27
2019-05-29T01:29:21.361Z,1030.28
2019-05-29T01:30:21.357Z,1030.26
2019-05-29T01:31:21.650Z,1030.29
2019-05-29T01:32:21.685Z,1030.28
2019-05-29T01:33:23.321Z,1030.28
2019-05-29T01:34:21.986Z,1030.3
2019-05-29T01:35:22.007Z,1030.31
2019-05-29T01:36:22.053Z,1030.34
2019-05-29T01:37:22.251Z,1030.28
2019-05-29T01:38:21.566Z,1030.27
2019-05-29T01:39:21.385Z,1030.28
2019-05-29T01:40:25.045Z,1030.31
2019-05-29T01:41:21.495Z,1030.32
2019-05-29T01:42:21.461Z,1030.32
2019-05-29T01:43:21.480Z,1030.36
2019-05-29T01:44:21.482Z,1030.41
2019-05-29T01:45:21.475Z,1030.42
2019-05-29T01:46:21.502Z,1030.41
2019-05-29T01:47:21.544Z,1030.41
2019-05-29T01:48:21.588Z,1030.43
2019-05-29T01:49:21.660Z,1030.43
2019-05-29T01:50:21.746Z,1030.44
2019-05-29T01:51:21.788Z,1030.42
2019-05-29T01:52:21.854Z,1030.41
2019-05-29T01:53:21.715Z,1030.4
2019-05-29T01:54:21.657Z,1030.4
2019-05-29T01:55:21.704Z,1030.39
2019-05-29T01:56:21.883Z,1030.44
2019-05-29T01:57:21.774Z,1030.41
2019-05-29T01:58:21.955Z,1030.37
2019-05-29T01:59:21.866Z,1030.38
2019-05-29T02:00:21.938Z,1030.44
2019-05-29T02:01:21.924Z,1030.41
2019-05-29T02:02:21.930Z,1030.43
2019-05-29T02:03:21.903Z,1030.46
2019-05-29T02:04:21.846Z,1030.52
2019-05-29T02:05:22.006Z,1030.56
2019-05-29T02:06:21.910Z,1030.55
2019-05-29T02:07:22.408Z,1030.59
2019-05-29T02:08:22.036Z,1030.58
2019-05-29T02:09:22.035Z,1030.66
2019-05-29T02:10:22.129Z,1030.62
2019-05-29T02:11:21.242Z,1030.66
2019-05-29T02:12:20.961Z,1030.66
2019-05-29T02:13:21.373Z,1030.64
2019-05-29T02:14:20.943Z,1030.66
2019-05-29T02:15:29.853Z,1030.68
2019-05-29T02:16:20.953Z,1030.67
2019-05-29T02:17:21.768Z,1030.64
2019-05-29T02:18:20.910Z,1030.67
2019-05-29T02:19:21.863Z,1030.62
2019-05-29T02:20:21.198Z,1030.65
2019-05-29T02:21:21.838Z,1030.59
2019-05-29T02:22:20.978Z,1030.61
2019-05-29T02:23:22.009Z,1030.65
2019-05-29T02:24:21.138Z,1030.67
2019-05-29T02:25:20.842Z,1030.68
2019-05-29T02:26:20.832Z,1030.7
2019-05-29T02:27:21.414Z,1030.75
2019-05-29T02:28:20.813Z,1030.77
2019-05-29T02:29:20.882Z,1030.77
2019-05-29T02:30:22.963Z,1030.73
2019-05-29T02:31:21.844Z,1030.77
2019-05-29T02:32:21.352Z,1030.82
2019-05-29T02:33:21.877Z,1030.78
2019-05-29T02:34:22.417Z,1030.82
2019-05-29T02:35:22.358Z,1030.83
2019-05-29T02:36:22.193Z,1030.78
2019-05-29T02:37:22.162Z,1030.83
2019-05-29T02:38:22.664Z,1030.85
2019-05-29T02:39:21.508Z,1030.81
2019-05-29T02:40:21.663Z,1030.84
2019-05-29T02:41:21.597Z,1030.81
2019-05-29T02:42:21.015Z,1030.83
2019-05-29T02:43:21.302Z,1030.77
2019-05-29T02:44:21.108Z,1030.72
2019-05-29T02:45:21.577Z,1030.78
2019-05-29T02:46:21.679Z,1030.76
2019-05-29T02:47:21.653Z,1030.81
2019-05-29T02:48:20.990Z,1030.79
2019-05-29T02:49:21.552Z,1030.79
2019-05-29T02:50:22.130Z,1030.82
2019-05-29T02:51:22.042Z,1030.8
2019-05-29T02:52:21.846Z,1030.87
2019-05-29T02:53:22.080Z,1030.89
2019-05-29T02:54:22.376Z,1030.89
2019-05-29T02:55:20.810Z,1030.82
2019-05-29T02:56:20.812Z,1030.89
2019-05-29T02:57:20.772Z,1030.89
2019-05-29T02:58:21.522Z,1030.89
2019-05-29T02:59:20.994Z,1030.86
2019-05-29T03:00:20.949Z,1030.89
2019-05-29T03:01:21.501Z,1030.88
2019-05-29T03:02:21.484Z,1030.91
2019-05-29T03:03:21.546Z,1030.91
2019-05-29T03:04:21.673Z,1030.93
2019-05-29T03:05:21.856Z,1030.87
2019-05-29T03:06:22.128Z,1030.9
2019-05-29T03:07:22.073Z,1030.9
2019-05-29T03:08:22.108Z,1030.91
2019-05-29T03:09:20.446Z,1030.89
2019-05-29T03:10:20.450Z,1030.93
2019-05-29T03:11:20.425Z,1030.92
2019-05-29T03:12:20.416Z,1030.91
2019-05-29T03:13:20.419Z,1030.96
2019-05-29T03:14:20.398Z,1030.93
2019-05-29T03:15:20.398Z,1030.98
2019-05-29T03:16:20.417Z,1030.97
2019-05-29T03:17:20.423Z,1031.04
2019-05-29T03:18:20.364Z,1030.98
2019-05-29T03:19:20.391Z,1030.94
2019-05-29T03:20:20.366Z,1030.93
2019-05-29T03:21:20.357Z,1030.98
2019-05-29T03:22:20.338Z,1030.94
2019-05-29T03:23:20.322Z,1030.99
2019-05-29T03:24:20.313Z,1031.01
2019-05-29T03:25:20.302Z,1030.96
2019-05-29T03:26:24.345Z,1030.98
2019-05-29T03:27:20.285Z,1031.05
2019-05-29T03:28:20.276Z,1031.03
2019-05-29T03:29:20.268Z,1031.09
2019-05-29T03:30:20.263Z,1031.08
2019-05-29T03:31:20.253Z,1031.1
2019-05-29T03:32:20.249Z,1031.06
2019-05-29T03:33:20.235Z,1031.04
2019-05-29T03:34:20.226Z,1031.11
2019-05-29T03:35:20.218Z,1031.14
2019-05-29T03:36:20.211Z,1031.11
2019-05-29T03:37:20.201Z,1031.16
2019-05-29T03:38:20.200Z,1031.19
2019-05-29T03:39:20.191Z,1031.22
2019-05-29T03:40:20.181Z,1031.2
2019-05-29T03:41:20.169Z,1031.19
2019-05-29T03:42:20.160Z,1031.2
2019-05-29T03:43:20.151Z,1031.21
2019-05-29T03:44:20.146Z,1031.21
2019-05-29T03:45:20.135Z,1031.22
2019-05-29T03:46:30.990Z,1031.25
2019-05-29T03:47:20.118Z,1031.28
2019-05-29T03:48:20.109Z,1031.21
2019-05-29T03:49:20.102Z,1031.22
2019-05-29T03:50:20.093Z,1031.26
2019-05-29T03:51:20.155Z,1031.26
2019-05-29T03:52:20.077Z,1031.25
2019-05-29T03:53:20.070Z,1031.31
2019-05-29T03:54:20.059Z,1031.29
2019-05-29T03:55:20.052Z,1031.31
2019-05-29T03:56:20.042Z,1031.27
2019-05-29T03:57:20.040Z,1031.32
2019-05-29T03:58:20.027Z,1031.34
2019-05-29T03:59:20.020Z,1031.36
2019-05-29T04:00:20.012Z,1031.34
2019-05-29T04:01:20.003Z,1031.29
2019-05-29T04:02:19.994Z,1031.33
2019-05-29T04:03:19.986Z,1031.28
2019-05-29T04:04:19.983Z,1031.27
2019-05-29T04:05:19.971Z,1031.3
2019-05-29T04:06:19.967Z,1031.29
2019-05-29T04:07:19.953Z,1031.3
2019-05-29T04:08:19.945Z,1031.3
2019-05-29T04:09:19.941Z,1031.31
2019-05-29T04:10:19.932Z,1031.28
2019-05-29T04:11:19.925Z,1031.27
2019-05-29T04:12:19.913Z,1031.2
2019-05-29T04:13:19.913Z,1031.24
2019-05-29T04:14:19.905Z,1031.21
2019-05-29T04:15:19.891Z,1031.27
2019-05-29T04:16:19.882Z,1031.23
2019-05-29T04:17:19.874Z,1031.23
2019-05-29T04:18:20.022Z,1031.29
2019-05-29T04:19:19.860Z,1031.26
2019-05-29T04:20:19.849Z,1031.31
2019-05-29T04:21:19.844Z,1031.32
2019-05-29T04:22:19.838Z,1031.2
2019-05-29T04:23:19.828Z,1031.3
2019-05-29T04:24:19.820Z,1031.22
2019-05-29T04:25:19.813Z,1031.28
2019-05-29T04:26:19.805Z,1031.28
2019-05-29T04:27:19.797Z,1031.25
2019-05-29T04:28:19.790Z,1031.21
2019-05-29T04:29:19.782Z,1031.17
2019-05-29T04:30:19.784Z,1031.08
2019-05-29T04:31:19.769Z,1031.03
2019-05-29T04:32:19.759Z,1031.01
2019-05-29T04:33:19.750Z,1030.86
2019-05-29T04:34:19.744Z,1030.84
2019-05-29T04:35:19.739Z,1030.87
2019-05-29T04:36:19.733Z,1030.9
2019-05-29T04:37:19.724Z,1030.8
2019-05-29T04:38:19.715Z,1030.85
2019-05-29T04:39:19.709Z,1031
2019-05-29T04:40:19.709Z,1031.02
2019-05-29T04:41:19.696Z,1031.09
2019-05-29T04:42:19.685Z,1031.11
2019-05-29T04:43:19.678Z,1031.13
2019-05-29T04:44:19.674Z,1031.14
2019-05-29T04:45:19.665Z,1031.16
2019-05-29T04:46:19.664Z,1031.17
2019-05-29T04:47:19.652Z,1031.16
2019-05-29T04:48:19.645Z,1031.26
2019-05-29T04:49:20.386Z,1031.29
2019-05-29T04:50:19.629Z,1031.32
2019-05-29T04:51:19.625Z,1031.29
2019-05-29T04:52:19.616Z,1031.34
2019-05-29T04:53:19.609Z,1031.39
2019-05-29T04:54:19.602Z,1031.37
2019-05-29T04:55:19.595Z,1031.43
2019-05-29T04:56:19.586Z,1031.4
2019-05-29T04:57:19.581Z,1031.39
2019-05-29T04:58:19.575Z,1031.48
2019-05-29T04:59:19.572Z,1031.49
2019-05-29T05:00:19.560Z,1031.41
2019-05-29T05:01:19.553Z,1031.4
2019-05-29T05:02:19.591Z,1031.39
2019-05-29T05:03:19.539Z,1031.35
2019-05-29T05:04:19.530Z,1031.31
2019-05-29T05:05:19.787Z,1031.25
2019-05-29T05:06:19.517Z,1031.19
2019-05-29T05:07:19.510Z,1031.19
2019-05-29T05:08:19.504Z,1031.2
2019-05-29T05:09:19.497Z,1031.14
2019-05-29T05:10:19.491Z,1031.14
2019-05-29T05:11:19.483Z,1031.08
2019-05-29T05:12:19.477Z,1031.05
2019-05-29T05:13:19.471Z,1031.03
2019-05-29T05:14:19.463Z,1031.16
2019-05-29T05:15:19.457Z,1031.11
2019-05-29T05:16:19.451Z,1031.12
2019-05-29T05:17:26.013Z,1031.06
2019-05-29T05:18:19.438Z,1031.19
2019-05-29T05:19:19.432Z,1031.22
2019-05-29T05:20:19.426Z,1031.12
2019-05-29T05:21:19.421Z,1031.18
2019-05-29T05:22:19.413Z,1031.19
2019-05-29T05:23:19.407Z,1031.07
2019-05-29T05:24:19.402Z,1030.97
2019-05-29T05:25:19.393Z,1030.98
2019-05-29T05:26:19.388Z,1030.99
2019-05-29T05:27:19.385Z,1030.96
2019-05-29T05:28:19.377Z,1030.9
2019-05-29T05:29:19.370Z,1030.94
2019-05-29T05:30:19.369Z,1030.89
2019-05-29T05:31:19.358Z,1030.93
2019-05-29T05:32:19.353Z,1030.84
2019-05-29T05:33:19.346Z,1030.86
2019-05-29T05:34:19.339Z,1030.8
2019-05-29T05:35:19.341Z,1030.76
2019-05-29T05:36:19.328Z,1030.8
2019-05-29T05:37:19.323Z,1030.81
2019-05-29T05:38:19.318Z,1030.9
2019-05-29T05:39:19.313Z,1030.89
2019-05-29T05:40:19.305Z,1030.9
2019-05-29T05:41:19.301Z,1030.86
2019-05-29T05:42:19.294Z,1030.88
2019-05-29T05:43:23.936Z,1030.92
2019-05-29T05:44:19.282Z,1030.93
2019-05-29T05:45:19.278Z,1030.97
2019-05-29T05:46:19.273Z,1030.97
2019-05-29T05:47:19.266Z,1031.02
2019-05-29T05:48:19.262Z,1031.08
2019-05-29T05:49:19.257Z,1031.18
2019-05-29T05:50:19.270Z,1031.25
2019-05-29T05:51:19.249Z,1031.39
2019-05-29T05:52:19.286Z,1031.5
2019-05-29T05:53:19.236Z,1031.57
2019-05-29T05:54:19.231Z,1031.72
2019-05-29T05:55:19.225Z,1031.92
2019-05-29T05:56:19.223Z,1031.92
2019-05-29T05:57:19.215Z,1031.99
2019-05-29T05:58:19.217Z,1032.04
2019-05-29T05:59:19.202Z,1031.99
2019-05-29T06:00:19.198Z,1031.94
2019-05-29T06:01:19.193Z,1031.82
2019-05-29T06:02:19.187Z,1031.67
2019-05-29T06:03:19.182Z,1031.53
2019-05-29T06:04:19.176Z,1031.41
2019-05-29T06:05:19.373Z,1031.18
2019-05-29T06:06:19.164Z,1030.98
2019-05-29T06:07:19.159Z,1030.74
2019-05-29T06:08:19.154Z,1030.52
2019-05-29T06:09:19.150Z,1030.36
2019-05-29T06:10:19.152Z,1030.32
2019-05-29T06:11:19.138Z,1030.02
2019-05-29T06:12:19.134Z,1029.55
2019-05-29T06:13:19.129Z,1029.37
2019-05-29T06:14:19.126Z,1029.47
2019-05-29T06:15:19.123Z,1028.47
2019-05-29T06:16:19.161Z,1028.66
2019-05-29T06:17:21.846Z,1028.83
2019-05-29T06:18:21.374Z,1029.03
2019-05-29T06:19:19.117Z,1028.87
2019-05-29T06:20:19.107Z,1028.22
2019-05-29T06:21:19.104Z,1028.1
2019-05-29T06:22:19.102Z,1027.32
2019-05-29T06:23:19.100Z,1027.5
2019-05-29T06:24:19.099Z,1027.39
2019-05-29T06:25:19.100Z,1027.33
2019-05-29T06:26:19.107Z,1027.13
2019-05-29T06:27:19.102Z,1026.83
2019-05-29T06:28:19.100Z,1026.96
2019-05-29T06:29:19.102Z,1026.89
2019-05-29T06:30:19.103Z,1026.88
2019-05-29T06:31:19.104Z,1026.74
2019-05-29T06:32:19.107Z,1026.26
2019-05-29T06:33:19.111Z,1026.49
2019-05-29T06:34:19.118Z,1026.76
2019-05-29T06:35:19.116Z,1027.08
2019-05-29T06:36:19.119Z,1027.46
2019-05-29T06:37:19.124Z,1027.71
2019-05-29T06:38:19.129Z,1027.96
2019-05-29T06:39:19.131Z,1027.86
2019-05-29T06:40:19.135Z,1027.52
2019-05-29T06:41:19.139Z,1027.82
2019-05-29T06:42:19.142Z,1027.84
2019-05-29T06:43:19.149Z,1027.72
2019-05-29T06:44:19.166Z,1027.6
2019-05-29T06:45:19.161Z,1027.19
2019-05-29T06:46:19.159Z,1026.77
2019-05-29T06:47:19.166Z,1026.54
2019-05-29T06:48:19.169Z,1026.15
2019-05-29T06:49:19.172Z,1026.18
2019-05-29T06:50:19.176Z,1025.99
2019-05-29T06:51:19.181Z,1025.92
2019-05-29T06:52:19.188Z,1025.75
2019-05-29T06:53:19.191Z,1025.71
2019-05-29T06:54:19.198Z,1025.69
2019-05-29T06:55:19.203Z,1025.65
2019-05-29T06:56:19.210Z,1025.46
2019-05-29T06:57:19.214Z,1025.28
2019-05-29T06:58:19.224Z,1025.28
2019-05-29T06:59:19.229Z,1024.93
2019-05-29T07:00:34.288Z,1025.38
2019-05-29T07:01:19.244Z,1025.87
2019-05-29T07:02:19.257Z,1025.63
2019-05-29T07:03:19.259Z,1025.52
2019-05-29T07:04:19.266Z,1025.25
2019-05-29T07:05:19.274Z,1025.31
2019-05-29T07:06:19.282Z,1025.55
2019-05-29T07:07:19.291Z,1025.66
2019-05-29T07:08:35.144Z,1025.75
2019-05-29T07:09:19.309Z,1025.84
2019-05-29T07:10:19.344Z,1025.8
2019-05-29T07:11:19.324Z,1025.58
2019-05-29T07:12:19.331Z,1025.76
2019-05-29T07:13:19.340Z,1025.56
2019-05-29T07:14:19.348Z,1025.58
2019-05-29T07:15:19.355Z,1025.94
2019-05-29T07:16:19.434Z,1026.78
2019-05-29T07:17:19.373Z,1026.76
2019-05-29T07:18:19.392Z,1026.54
2019-05-29T07:19:25.487Z,1026.14
2019-05-29T07:20:19.401Z,1026.95
2019-05-29T07:21:19.408Z,1027.89
2019-05-29T07:22:19.416Z,1028.18
2019-05-29T07:23:19.422Z,1027.97
2019-05-29T07:24:19.427Z,1028.32
2019-05-29T07:25:19.443Z,1028.48
2019-05-29T07:26:19.442Z,1028.27
2019-05-29T07:27:19.453Z,1027.7
2019-05-29T07:28:19.456Z,1027.53
2019-05-29T07:29:19.503Z,1027.34
2019-05-29T07:30:19.469Z,1027.34
2019-05-29T07:31:19.477Z,1027.4
2019-05-29T07:32:19.483Z,1027.29
2019-05-29T07:33:19.488Z,1027.43
2019-05-29T07:34:19.520Z,1027.45
2019-05-29T07:35:19.501Z,1027.55
2019-05-29T07:36:19.516Z,1027.88
2019-05-29T07:37:19.517Z,1028.12
2019-05-29T07:38:19.519Z,1028.2
2019-05-29T07:39:19.525Z,1028.39
2019-05-29T07:40:19.533Z,1028.59
2019-05-29T07:41:19.534Z,1028.46
2019-05-29T07:42:19.543Z,1028.36
2019-05-29T07:43:19.547Z,1028.1
2019-05-29T07:44:19.552Z,1027.98
2019-05-29T07:45:19.557Z,1028.11
2019-05-29T07:46:19.563Z,1028.26
2019-05-29T07:47:19.571Z,1028.33
2019-05-29T07:48:19.577Z,1028.18
2019-05-29T07:49:19.576Z,1027.9
2019-05-29T07:50:40.734Z,1027.64
2019-05-29T07:51:40.735Z,1027.53
2019-05-29T07:52:41.040Z,1027.48
2019-05-29T07:53:40.744Z,1027.34
2019-05-29T07:54:41.730Z,1027.14
2019-05-29T07:55:40.756Z,1027.11
2019-05-29T07:56:40.762Z,1028.16
2019-05-29T07:57:40.963Z,1027.81
2019-05-29T07:58:43.040Z,1027.61
2019-05-29T07:59:40.781Z,1027.31
2019-05-29T08:01:00.762Z,1026.98
2019-05-29T08:01:40.923Z,1026.65
2019-05-29T08:02:41.289Z,1026.6
2019-05-29T08:03:41.173Z,1027.24
2019-05-29T08:04:41.025Z,1027.57
2019-05-29T08:05:41.173Z,1027.19
2019-05-29T08:06:48.142Z,1027.01
2019-05-29T08:07:41.370Z,1027.23
2019-05-29T08:08:41.175Z,1027.74
2019-05-29T08:09:41.353Z,1028.33
2019-05-29T08:10:41.742Z,1028.73
2019-05-29T08:11:41.510Z,1029.12
2019-05-29T08:12:44.239Z,1029.38
2019-05-29T08:13:41.472Z,1029.11
2019-05-29T08:14:41.785Z,1027.74
2019-05-29T08:15:53.825Z,1026.7
2019-05-29T08:16:41.906Z,1026.76
2019-05-29T08:17:42.011Z,1027.23
2019-05-29T08:18:41.716Z,1027.75
2019-05-29T08:19:56.883Z,1028.32
2019-05-29T08:20:41.853Z,1028.8
2019-05-29T08:21:42.291Z,1029.09
2019-05-29T08:22:42.261Z,1029.24
2019-05-29T08:23:42.174Z,1029.48
2019-05-29T08:24:42.445Z,1029.63
2019-05-29T08:25:41.376Z,1029.75
2019-05-29T08:26:40.935Z,1029.91
2019-05-29T08:27:40.938Z,1029.71
2019-05-29T08:28:40.943Z,1029.56
2019-05-29T08:29:40.947Z,1029.66
2019-05-29T08:30:41.579Z,1030.15
2019-05-29T08:31:40.955Z,1029.64
2019-05-29T08:32:40.958Z,1030.07
2019-05-29T08:33:40.962Z,1029.66
2019-05-29T08:34:40.971Z,1029
2019-05-29T08:35:41.497Z,1028.49
2019-05-29T08:36:55.666Z,1028.2
2019-05-29T08:37:40.976Z,1027.95
2019-05-29T08:38:42.880Z,1027.73
2019-05-29T08:39:41.202Z,1027.47
2019-05-29T08:40:41.096Z,1027.24
2019-05-29T08:41:45.397Z,1026.98
2019-05-29T08:42:41.136Z,1027.1
2019-05-29T08:43:42.358Z,1028.13
2019-05-29T08:44:41.312Z,1028.78
2019-05-29T08:45:41.516Z,1029.5
2019-05-29T08:46:41.667Z,1029.8
2019-05-29T08:47:41.457Z,1029.63
2019-05-29T08:48:41.748Z,1029.65
2019-05-29T08:49:41.741Z,1029.81
2019-05-29T08:50:41.515Z,1030.14
2019-05-29T08:51:41.799Z,1030.38
2019-05-29T08:52:41.763Z,1030.65
2019-05-29T08:53:42.504Z,1030.79
2019-05-29T08:54:42.033Z,1031.01
2019-05-29T08:55:42.030Z,1031.15
2019-05-29T08:56:42.235Z,1031.2
2019-05-29T08:57:42.518Z,1031.23
2019-05-29T08:58:42.766Z,1031.24
2019-05-29T08:59:42.069Z,1031.23
2019-05-29T09:00:45.580Z,1031.23
2019-05-29T09:01:42.588Z,1031.39
2019-05-29T09:02:42.418Z,1031.38
2019-05-29T09:03:42.658Z,1031.47
2019-05-29T09:04:42.899Z,1031.58
2019-05-29T09:05:41.072Z,1031.57
2019-05-29T09:06:41.075Z,1031.56
2019-05-29T09:07:41.077Z,1031.5
2019-05-29T09:08:41.076Z,1031.45
2019-05-29T09:09:41.077Z,1031.43
2019-05-29T09:10:41.077Z,1031.67
2019-05-29T09:11:41.084Z,1031.77
2019-05-29T09:12:41.082Z,1031.97
2019-05-29T09:13:41.079Z,1032.08
2019-05-29T09:14:41.078Z,1032.3
2019-05-29T09:15:41.079Z,1032.46
2019-05-29T09:16:41.082Z,1032.6
2019-05-29T09:17:41.079Z,1032.65
2019-05-29T09:18:41.079Z,1032.67
2019-05-29T09:19:41.079Z,1032.56
2019-05-29T09:21:00.653Z,1032.5
2019-05-29T09:21:41.077Z,1032.38
2019-05-29T09:22:41.077Z,1032.22
2019-05-29T09:23:41.077Z,1032.21
2019-05-29T09:24:41.076Z,1032.29
2019-05-29T09:25:41.075Z,1032.44
2019-05-29T09:26:41.073Z,1032.58
2019-05-29T09:27:41.072Z,1032.7
2019-05-29T09:28:41.071Z,1032.95
2019-05-29T09:29:41.070Z,1033.07
2019-05-29T09:30:41.071Z,1033.13
2019-05-29T09:31:41.068Z,1033.32
2019-05-29T09:32:49.936Z,1033.42
2019-05-29T09:33:41.065Z,1033.51
2019-05-29T09:34:41.062Z,1033.51
2019-05-29T09:35:41.061Z,1033.45
2019-05-29T09:36:41.104Z,1033.39
2019-05-29T09:37:41.059Z,1033.37
2019-05-29T09:38:41.062Z,1033.3
2019-05-29T09:39:41.054Z,1033.24
2019-05-29T09:40:41.053Z,1033.26
2019-05-29T09:41:41.050Z,1033.24
2019-05-29T09:42:41.050Z,1033.25
2019-05-29T09:43:57.585Z,1033.27
2019-05-29T09:44:41.044Z,1033.25
2019-05-29T09:45:41.042Z,1033.22
2019-05-29T09:46:41.039Z,1033.27
2019-05-29T09:47:41.037Z,1033.25
2019-05-29T09:48:49.443Z,1033.18
2019-05-29T09:49:41.034Z,1033.05
2019-05-29T09:50:49.865Z,1032.95
2019-05-29T09:53:04.632Z,1032.9
2019-05-29T09:54:04.649Z,1032.9
2019-05-29T09:55:04.612Z,1033.19
2019-05-29T09:56:04.611Z,1033.2
2019-05-29T09:57:04.623Z,1033.3
2019-05-29T09:58:04.608Z,1033.36
2019-05-29T09:59:04.603Z,1033.41
2019-05-29T10:00:04.606Z,1033.42
2019-05-29T10:01:21.312Z,1033.47
2019-05-29T10:02:08.259Z,1033.52
2019-05-29T10:03:04.594Z,1033.52
2019-05-29T10:04:06.128Z,1033.53
2019-05-29T10:05:04.597Z,1033.59
2019-05-29T10:06:04.592Z,1033.56
2019-05-29T10:07:05.019Z,1033.6
2019-05-29T10:08:04.591Z,1033.59
2019-05-29T10:09:04.590Z,1033.64
2019-05-29T10:10:05.096Z,1033.62
2019-05-29T10:11:09.919Z,1033.59
2019-05-29T10:12:06.756Z,1033.55
2019-05-29T10:13:04.577Z,1033.45
2019-05-29T10:14:05.061Z,1033.36
2019-05-29T10:15:04.573Z,1033.25
2019-05-29T10:16:04.721Z,1033.22
2019-05-29T10:17:09.062Z,1033.3
2019-05-29T10:18:08.255Z,1033.33
2019-05-29T10:19:04.952Z,1033.51
2019-05-29T10:20:05.070Z,1033.65
2019-05-29T10:21:05.090Z,1033.82
2019-05-29T10:22:05.676Z,1033.85
2019-05-29T10:23:05.111Z,1033.94
2019-05-29T10:24:06.012Z,1033.92
2019-05-29T10:25:05.776Z,1033.95
2019-05-29T10:26:05.062Z,1033.89
2019-05-29T10:27:06.217Z,1033.87
2019-05-29T10:28:06.027Z,1033.83
2019-05-29T10:29:08.989Z,1033.82
2019-05-29T10:30:04.528Z,1033.81
2019-05-29T10:31:05.004Z,1033.78
2019-05-29T10:34:04.517Z,1033.68
2019-05-29T10:35:04.513Z,1033.68
2019-05-29T10:36:04.576Z,1033.53
2019-05-29T10:37:04.509Z,1033.42
2019-05-29T10:38:04.549Z,1033.27
2019-05-29T10:39:04.504Z,1033.16
2019-05-29T10:40:04.501Z,1032.97
2019-05-29T10:41:06.534Z,1032.82
2019-05-29T10:42:04.499Z,1032.75
2019-05-29T10:43:04.498Z,1032.7
2019-05-29T10:44:04.490Z,1032.7
2019-05-29T10:45:04.488Z,1032.81
2019-05-29T10:46:04.730Z,1032.95
2019-05-29T10:47:04.540Z,1033.07
2019-05-29T10:48:04.481Z,1033.34
2019-05-29T10:49:04.946Z,1033.54
2019-05-29T10:50:04.495Z,1033.81
2019-05-29T10:51:04.474Z,1034.07
2019-05-29T10:52:14.339Z,1034.19
2019-05-29T10:53:04.469Z,1034.23
2019-05-29T10:54:04.494Z,1034.24
2019-05-29T10:55:04.464Z,1034.25
2019-05-29T10:56:04.462Z,1034.27
2019-05-29T10:57:04.464Z,1034.27
2019-05-29T10:58:04.456Z,1034.27
2019-05-29T10:59:04.453Z,1034.24
2019-05-29T11:00:04.451Z,1034.28
2019-05-29T11:01:04.446Z,1034.23
2019-05-29T11:02:04.448Z,1034.18
2019-05-29T11:03:04.442Z,1034.13
2019-05-29T11:04:04.439Z,1034.13
2019-05-29T11:05:04.437Z,1034.06
2019-05-29T11:06:04.432Z,1034.1
2019-05-29T11:07:04.433Z,1034.14
2019-05-29T11:08:04.425Z,1034.3
2019-05-29T11:09:04.425Z,1034.32
2019-05-29T11:10:04.421Z,1034.39
2019-05-29T11:11:04.417Z,1034.41
2019-05-29T11:12:04.413Z,1034.3
2019-05-29T11:13:04.410Z,1034.32
2019-05-29T11:14:04.409Z,1034.23
2019-05-29T11:15:20.291Z,1034.38
2019-05-29T11:16:04.400Z,1034.35
2019-05-29T11:17:04.397Z,1034.29
2019-05-29T11:18:04.392Z,1034.31
2019-05-29T11:19:04.390Z,1034.25
2019-05-29T11:20:04.388Z,1034.18
2019-05-29T11:21:04.383Z,1034.11
2019-05-29T11:22:22.849Z,1034.03
2019-05-29T11:23:04.376Z,1034.02
2019-05-29T11:24:04.375Z,1033.85
2019-05-29T11:25:21.386Z,1033.8
2019-05-29T11:26:04.368Z,1033.72
2019-05-29T11:27:04.368Z,1033.68
2019-05-29T11:28:04.362Z,1033.57
2019-05-29T11:29:04.364Z,1033.57
2019-05-29T11:30:04.353Z,1033.58
2019-05-29T11:31:05.849Z,1033.65
2019-05-29T11:32:04.349Z,1033.67
2019-05-29T11:33:04.349Z,1033.7
2019-05-29T11:34:04.343Z,1033.79
2019-05-29T11:35:04.347Z,1033.85
2019-05-29T11:36:10.488Z,1033.85
2019-05-29T11:37:04.334Z,1033.86
2019-05-29T11:38:04.332Z,1033.89
2019-05-29T11:39:06.235Z,1033.87
2019-05-29T11:40:04.326Z,1033.77
2019-05-29T11:41:24.960Z,1033.79
2019-05-29T11:42:04.318Z,1033.81
2019-05-29T11:43:04.319Z,1033.74
2019-05-29T11:44:04.314Z,1033.62
2019-05-29T11:45:04.312Z,1033.64
2019-05-29T11:46:04.307Z,1033.65
2019-05-29T11:47:04.307Z,1033.67
2019-05-29T11:48:05.198Z,1033.61
2019-05-29T11:49:04.299Z,1033.6
2019-05-29T11:50:17.915Z,1033.52
2019-05-29T11:51:04.293Z,1033.49
2019-05-29T11:52:21.326Z,1033.41
2019-05-29T11:53:04.287Z,1033.33
2019-05-29T11:54:04.284Z,1033.36
2019-05-29T11:55:07.840Z,1033.45
2019-05-29T11:56:04.278Z,1033.56
2019-05-29T11:57:04.275Z,1033.74
2019-05-29T11:58:04.273Z,1033.76
2019-05-29T11:59:04.269Z,1033.9
2019-05-29T12:00:13.927Z,1033.99
2019-05-29T12:01:04.268Z,1034.04
2019-05-29T12:02:04.264Z,1034.05
2019-05-29T12:03:04.260Z,1033.97
2019-05-29T12:04:22.244Z,1033.94
2019-05-29T12:05:04.253Z,1033.88
2019-05-29T12:06:04.273Z,1034
2019-05-29T12:07:04.246Z,1034.04
2019-05-29T12:08:04.465Z,1034.14
2019-05-29T12:09:04.277Z,1034.21
2019-05-29T12:10:05.462Z,1034.41
2019-05-29T12:11:06.999Z,1034.4
2019-05-29T12:12:04.232Z,1034.43
2019-05-29T12:13:04.226Z,1034.44